Nearby METAR Reports

 

KICL - Clarinda, Iowa, USA
Distance from station: N 49mi, 79km
Updated: Tue, 19-Jun-2018 7:15am CDT
Overcast
Overcast
 Wind from NNE
Wind: NNE 7 mph , 11 km/h
Temperature: 72°F , 22°C
Dew Point: 68°F , 20°C
Humidity: 88%
Barometer: 29.98 inHg , 1015.2 hPa
Clouds: Overcast
Visibility: 10 miles , 16 km
Cloud details: Overcast 2200 ft
2018/06/19 12:15 KICL 191215Z AUTO 03006KT 10SM OVC022 22/20 A2998 RMK AO2
KDSM - Des Moines, Iowa, USA
Distance from station: NNE 122mi, 196km
Updated: Tue, 19-Jun-2018 6:54am CDT
Mostly cloudy
Mostly cloudy
 Wind from SSE
Wind: SSE 13 mph , 20 km/h
Temperature: 73°F , 23°C
Dew Point: 70°F , 21°C
Humidity: 89%
Barometer: 29.93 inHg , 1013.5 hPa
Clouds: Mostly cloudy
Visibility: 10 miles , 16 km
Cloud details: Few Clouds 4500 ft
Partly cloudy 7000 ft
Mostly cloudy 17000 ft
2018/06/19 11:54 KDSM 191154Z 15011KT 10SM FEW045 SCT070 BKN170 23/21 A2993 RMK AO2 SLP124 60004 70038 T02330211 10233 20228 56008 $
KFNB - Falls City, Nebraska, USA
Distance from station: W 50mi, 80km
Updated: Tue, 19-Jun-2018 6:53am CDT
Partly cloudy
Partly cloudy
 Wind from S
Wind: S 10 mph , 17 km/h
Temperature: 75°F , 24°C
Dew Point: 72°F , 22°C
Humidity: 89%
Barometer: 29.91 inHg , 1012.9 hPa
Clouds: Partly cloudy
Visibility: 10 miles , 16 km
Cloud details: Partly cloudy 9500 ft
2018/06/19 11:53 KFNB 191153Z AUTO 18009KT 10SM SCT095 24/22 A2991 RMK AO2 LTG DSNT E AND S RAB1055E29 TSB08E23 SLP120 P0029 60029 70029 T02390222 10267 20233 58003
 
KMCI - Kansas City, Missouri, USA
Distance from station: S 65mi, 104km
Updated: Tue, 19-Jun-2018 6:53am CDT
Few Clouds
Few Clouds
 Wind from SSW
Wind: SSW 8 mph , 13 km/h
Temperature: 75°F , 24°C
Dew Point: 70°F , 21°C
Humidity: 83%
Barometer: 29.97 inHg , 1014.9 hPa
Clouds: Few Clouds
Visibility: 10 miles , 16 km
Cloud details: Few Clouds 6000 ft
2018/06/19 11:53 KMCI 191153Z 20007KT 10SM FEW060 24/21 A2997 RMK AO2 SLP134 CB DSNT W-NW T02440211 10244 20217 52005
KOMA - Omaha, Nebraska, USA
Distance from station: NNW 105mi, 169km
Updated: Tue, 19-Jun-2018 7:28am CDT
Light thunderstorm, Rain, Mist, Overcast
Light thunderstorm, Rain, Mist, Overcast
 Wind from SSE
Wind: SSE 14 mph , 22 km/h
Temperature: 73°F , 23°C
Dew Point: 70°F , 21°C
Humidity: 89%
Barometer: 29.93 inHg , 1013.5 hPa
Summary: Light thunderstorm, Rain, Mist
Clouds: Overcast
Visibility: 3 miles , 5 km
Cloud details: Few Clouds 1600 ft
Partly cloudy 2900 ft
Overcast 4300 ft
2018/06/19 12:28 KOMA 191228Z 15012KT 3SM -TSRA BR FEW016 SCT029CB OVC043 23/21 A2993 RMK AO2 LTG DSNT ALQDS FRQ LTGICCG OHD TS OHD MOV E P0067 T02280211
KRDK - Red Oak, Iowa, USA
Distance from station: N 70mi, 112km
Updated: Tue, 19-Jun-2018 7:15am CDT
Light rain, Overcast
Light rain, Overcast
 Wind from calm
Wind: Calm
Temperature: 70°F , 21°C
Dew Point: 68°F , 20°C
Humidity: 94%
Barometer: 29.96 inHg , 1014.6 hPa
Summary: Light rain
Clouds: Overcast
Visibility: 8 miles , 13 km
Cloud details: Mostly cloudy 2500 ft
Mostly cloudy 3900 ft
Overcast 6500 ft
2018/06/19 12:15 KRDK 191215Z AUTO 00000KT 8SM -RA BKN025 BKN039 OVC065 21/20 A2996 RMK AO2
 
KSTJ - Saint Joseph, Missouri, USA
Distance from station: SW 23mi, 37km
Updated: Tue, 19-Jun-2018 6:53am CDT
Clear
Clear
 Wind from S
Wind: S 7 mph , 11 km/h
Temperature: 79°F , 26°C
Dew Point: 72°F , 22°C
Humidity: 79%
Barometer: 29.95 inHg , 1014.2 hPa
Clouds: Clear
Visibility: 10 miles , 16 km
2018/06/19 11:53 KSTJ 191153Z AUTO 19006KT 10SM CLR 26/22 A2995 RMK AO2 LTG DSNT W AND NW SLP130 T02560222 10261 20233 50003
KTOP - Topeka, Kansas, USA
Distance from station: SW 85mi, 137km
Updated: Tue, 19-Jun-2018 6:53am CDT
Clear
Clear
 Wind from S
Wind: S 7 mph , 11 km/h
Temperature: 77°F , 25°C
Dew Point: 72°F , 22°C
Humidity: 83%
Barometer: 29.95 inHg , 1014.2 hPa
Clouds: Clear
Visibility: 10 miles , 16 km
2018/06/19 11:53 KTOP 191153Z 18006KT 10SM CLR 25/22 A2995 RMK AO2 SLP130 T02500222 10267 20233 51007
KICT - Wichita, Kansas, USA
Distance from station: SW 215mi, 346km
Updated: Tue, 19-Jun-2018 6:53am CDT
Partly cloudy
Partly cloudy
 Wind from S
Wind: S 9 mph , 15 km/h
Temperature: 75°F , 24°C
Dew Point: 70°F , 21°C
Humidity: 83%
Barometer: 29.98 inHg , 1015.2 hPa
Clouds: Partly cloudy
Visibility: 10 miles , 16 km
Cloud details: Few Clouds 12000 ft
Partly cloudy 15000 ft
Partly cloudy 20000 ft
2018/06/19 11:53 KICT 191153Z 18008KT 10SM FEW120 SCT150 SCT200 24/21 A2998 RMK AO2 SLP133 T02440211 10261 20239 53013 $